Current | Forecast
Updated: 4:55 AM JST on February 22, 2018
Observed at Iwakuni MCAS, Japan
Temperature 35°F
Windchill 29°F
Humidity 78%
Dew Point 29°F
Wind WNW at 8 mph
Pressure 30.15 in (Steady)
Conditions Partly Cloudy
Visibility 6.2 miles
UV 0 out of 16
Clouds (FEW) : 3000 ft
(FEW) : 20000 ft
Yesterday's Maximum 53°F
Yesterday's Minimum 39°F approx.
Yesterday's Heating Degree Days 19 approx.
Sunrise6:46 AM JST
Sunset5:58 PM JST
Moon Rise10:33 AM JST
Moon Set
Moon PhaseMoon Phase
Waxing Crescent
Raw METARMETAR RJOI 211955Z 30007KT 9999 FEW030 FEW200 02/M02 A3015 RMK SLP210 T00171017


Monday
. High: 71° F.
Tuesday
. High: 73° F.
Wednesday
. High: 73° F.
Thursday
. High: 73° F.
Friday
. High: 73° F.
Saturday
. High: 75° F.
Sunday
. High: 77° F.
Monday
. High: 78° F.

Units: English | Metric

Find the Weather for any City, State or Zipcode, or Country:

U.S. State List | Severe Weather | Tropical Storms | Ski Conditions
United States | Canada | Central America | South America | Asia | Europe | Australia | Africa | Islands

Weather Underground

© Copyright 2018
The Weather Company, LLC